Adelphi, Maryland
Current Conditions -  °F | °C
As of 9:20 AM on Sunday 23 Nov 2014 (Local Time) from KCGS Reporting Station
Clear Clear  
Wind Chill:   Ceiling: Unl
Heat Index:   Visibility: 10mi
Dew Point: -5°   Wind: 0mph
Humidity: 46%   Direction: NA
Pressure: 30.21"   Gusts: NA
Location:  39°N, 76.97°W
Report Text: KCGS 231420Z AUTO 00000KT 10SM CLR 06/M05 A3021 RMK AO1
Loading
Personal Weather Stations






























Interactive Weather Map New forecast layout! Learn more

10-Day Weather Forecast

Advertisements
Track Severe Weather on mobile